Time;durP1;ratioP1;P1;durP2;ratioP2;P2;SDS_P1;SDS_P2;PMS_P1;PMS_P2;Temp;Humidity;BMP_temperature;BMP_pressure;BME280_temperature;BME280_humidity;BME280_pressure;Samples;Min_cycle;Max_cycle;Signal;HPM_P1;HPM_P2
2022/06/09 00:01:49;;;;;;;29.20;18.92;;;;;;;19.18;100.00;100646.28;7397868;19;20006;-43
2022/06/09 00:04:24;;;;;;;33.20;20.35;;;;;;;19.61;100.00;100645.31;7395844;19;20014;-43
2022/06/09 00:06:57;;;;;;;37.28;19.55;;;;;;;19.76;100.00;100652.94;7397500;19;20015;-43
2022/06/09 00:09:32;;;;;;;30.20;18.05;;;;;;;19.66;100.00;100653.75;7396074;19;20011;-43
2022/06/09 00:12:01;;;;;;;31.63;17.30;;;;;;;18.64;100.00;100655.97;7396609;19;20052;-44
2022/06/09 00:14:31;;;;;;;31.73;18.15;;;;;;;19.15;100.00;100654.50;7395263;19;20013;-43
2022/06/09 00:16:59;;;;;;;33.30;18.98;;;;;;;19.38;100.00;100654.41;7396118;19;20018;-43
2022/06/09 00:19:31;;;;;;;33.13;19.80;;;;;;;19.61;100.00;100661.25;7396189;19;20011;-46
2022/06/09 00:22:00;;;;;;;33.17;17.38;;;;;;;19.18;100.00;100662.22;7395372;19;20475;-44
2022/06/09 00:24:29;;;;;;;37.92;19.25;;;;;;;19.41;100.00;100656.78;7394813;19;20482;-44
2022/06/09 00:26:58;;;;;;;35.03;18.70;;;;;;;19.33;100.00;100660.09;7395591;19;20102;-44
2022/06/09 00:29:27;;;;;;;32.28;16.70;;;;;;;18.96;100.00;100655.19;7392804;19;20460;-43
2022/06/09 00:31:56;;;;;;;35.72;18.45;;;;;;;19.21;100.00;100659.28;7394835;19;20490;-46
2022/06/09 00:34:25;;;;;;;31.52;18.15;;;;;;;19.50;100.00;100661.31;7393516;19;20058;-44
2022/06/09 00:36:56;;;;;;;35.83;18.13;;;;;;;19.52;100.00;100667.34;7395368;19;20111;-44
2022/06/09 00:39:25;;;;;;;32.95;15.88;;;;;;;18.83;100.00;100669.44;7395080;19;20477;-44
2022/06/09 00:41:55;;;;;;;34.33;16.85;;;;;;;19.41;100.00;100664.75;7395438;19;20022;-45
2022/06/09 00:44:26;;;;;;;35.65;16.65;;;;;;;19.14;100.00;100663.44;7394410;19;20019;-44
2022/06/09 00:46:58;;;;;;;28.20;16.50;;;;;;;19.32;100.00;100661.91;7394939;19;20007;-44
2022/06/09 00:49:31;;;;;;;31.43;15.20;;;;;;;18.96;100.00;100665.81;7393836;19;20478;-44
2022/06/09 00:52:03;;;;;;;;;;;;;;;18.38;100.00;100672.16;7395868;19;20328;-44
2022/06/09 00:54:38;;;;;;;22.00;12.85;;;;;;;18.96;100.00;100673.78;7393684;19;19918;-44
2022/06/09 00:57:12;;;;;;;30.58;12.75;;;;;;;18.72;100.00;100672.13;7395912;19;20479;-44
2022/06/09 00:59:44;;;;;;;24.88;11.52;;;;;;;18.83;100.00;100668.59;7394942;19;20014;-44
2022/06/09 01:02:16;;;;;;;23.88;11.60;;;;;;;18.75;100.00;100671.88;7394681;19;20078;-46
2022/06/09 01:04:46;;;;;;;24.77;13.50;;;;;;;19.17;100.00;100666.69;7392214;19;20014;-45
2022/06/09 01:07:20;;;;;;;31.25;12.40;;;;;;;18.89;100.00;100676.09;7393393;19;20352;-44
2022/06/09 01:09:49;;;;;;;27.20;12.10;;;;;;;19.05;100.00;100675.66;7391580;19;20022;-44
2022/06/09 01:12:28;;;;;;;25.73;11.18;;;;;;;18.13;100.00;100687.38;7392605;19;20011;-47
2022/06/09 01:15:00;;;;;;;26.73;11.27;;;;;;;18.36;100.00;100699.81;7395810;19;20010;-44
2022/06/09 01:17:41;;;;;;;22.88;11.20;;;;;;;18.67;100.00;100701.69;7398356;19;20049;-44
2022/06/09 01:20:25;;;;;;;30.02;11.90;;;;;;;19.23;100.00;100699.00;7403676;19;20110;-47
2022/06/09 01:23:23;;;;;;;24.13;11.23;;;;;;;18.68;100.00;100700.75;7403816;19;20464;-46
2022/06/09 01:26:10;;;;;;;21.60;11.27;;;;;;;19.23;100.00;100707.84;7403444;19;20007;-44
2022/06/09 01:29:09;;;;;;;21.13;10.95;;;;;;;18.98;100.00;100707.22;7402731;19;20025;-44
2022/06/09 01:31:48;;;;;;;28.15;12.75;;;;;;;19.50;100.00;100710.00;7395521;19;20021;-44
2022/06/09 01:34:26;;;;;;;30.17;13.18;;;;;;;19.39;100.00;100712.72;7392723;19;20479;-45
2022/06/09 01:37:03;;;;;;;30.40;12.57;;;;;;;19.21;100.00;100712.44;7393142;19;20017;-45
2022/06/09 01:39:44;;;;;;;34.25;13.25;;;;;;;19.17;100.00;100711.00;7391681;19;20021;-44
2022/06/09 01:42:24;;;;;;;27.85;12.80;;;;;;;18.94;100.00;100711.09;7392597;19;20011;-45
2022/06/09 01:44:56;;;;;;;26.02;13.38;;;;;;;19.13;100.00;100712.25;7390928;19;20015;-44
2022/06/09 01:47:33;;;;;;;24.75;12.30;;;;;;;18.92;100.00;100710.34;7393221;19;20053;-44
2022/06/09 01:50:06;;;;;;;29.13;13.27;;;;;;;19.25;100.00;100713.88;7391700;19;20018;-44
2022/06/09 01:52:36;;;;;;;27.92;12.52;;;;;;;19.16;100.00;100720.78;7392978;19;20029;-45
2022/06/09 01:55:07;;;;;;;26.63;13.10;;;;;;;19.06;100.00;100727.00;7390344;19;20018;-47
2022/06/09 01:57:40;;;;;;;30.25;13.63;;;;;;;18.89;100.00;100725.72;7390738;19;20097;-51
2022/06/09 02:00:12;;;;;;;33.60;13.73;;;;;;;18.78;100.00;100721.22;7390297;19;20010;-52
2022/06/09 02:02:47;;;;;;;;;;;;;;;18.98;100.00;100725.81;7392537;19;20599;-47
2022/06/09 02:05:21;;;;;;;30.48;13.00;;;;;;;18.89;100.00;100728.38;7389221;19;20280;-47
2022/06/09 02:07:51;;;;;;;31.58;13.45;;;;;;;18.95;100.00;100730.50;7391663;19;20426;-47
2022/06/09 02:10:30;;;;;;;30.40;12.85;;;;;;;18.78;100.00;100734.50;7390241;19;20090;-44
2022/06/09 02:13:03;;;;;;;34.05;14.07;;;;;;;18.99;100.00;100735.44;7390477;19;20490;-48
2022/06/09 02:15:36;;;;;;;31.33;14.13;;;;;;;18.82;100.00;100738.59;7390947;19;20014;-51
2022/06/09 02:18:14;;;;;;;33.15;13.70;;;;;;;18.29;100.00;100745.38;7391529;19;20566;-48
2022/06/09 02:20:48;;;;;;;31.35;13.30;;;;;;;17.72;100.00;100747.03;7389990;19;20019;-48
2022/06/09 02:23:18;;;;;;;26.75;12.68;;;;;;;17.31;100.00;100745.72;7390284;19;20029;-50
2022/06/09 02:25:47;;;;;;;31.35;14.05;;;;;;;17.87;100.00;100755.66;7390608;19;20022;-52
2022/06/09 02:28:16;;;;;;;29.10;14.50;;;;;;;18.05;100.00;100750.75;7390078;19;20541;-46
2022/06/09 02:30:45;;;;;;;38.25;14.68;;;;;;;18.20;100.00;100755.88;7389388;19;20097;-54
2022/06/09 02:33:17;;;;;;;29.48;13.65;;;;;;;18.07;100.00;100754.16;7389929;19;20026;-49
2022/06/09 02:35:46;;;;;;;42.58;15.63;;;;;;;18.44;100.00;100772.53;7390038;19;20015;-49
2022/06/09 02:38:15;;;;;;;33.60;15.57;;;;;;;18.16;100.00;100768.50;7393455;19;20033;-47
2022/06/09 02:40:44;;;;;;;36.45;15.88;;;;;;;18.19;100.00;100773.56;7397943;19;20019;-51
2022/06/09 02:43:13;;;;;;;31.38;15.13;;;;;;;18.24;100.00;100767.91;7396862;19;20037;-48
2022/06/09 02:45:42;;;;;;;39.20;15.90;;;;;;;17.98;100.00;100768.09;7397798;19;20494;-45
2022/06/09 02:48:12;;;;;;;29.58;14.30;;;;;;;17.74;100.00;100770.81;7398224;19;20356;-45
2022/06/09 02:50:46;;;;;;;26.00;14.27;;;;;;;18.00;100.00;100774.16;7395478;19;20023;-45
2022/06/09 02:53:15;;;;;;;31.50;14.05;;;;;;;17.79;100.00;100779.25;7396589;19;20924;-47
2022/06/09 02:55:44;;;;;;;31.30;13.52;;;;;;;17.71;100.00;100777.19;7396975;19;20023;-48
2022/06/09 02:58:13;;;;;;;33.30;14.02;;;;;;;17.76;100.00;100774.19;7396963;19;20010;-49
2022/06/09 03:00:43;;;;;;;35.40;14.52;;;;;;;17.91;100.00;100785.44;7397252;19;20022;-49
2022/06/09 03:03:16;;;;;;;30.90;14.23;;;;;;;17.79;100.00;100785.41;7395916;19;20030;-48
2022/06/09 03:05:47;;;;;;;36.25;14.77;;;;;;;18.05;100.00;100792.34;7397077;19;20014;-47
2022/06/09 03:08:16;;;;;;;30.92;14.15;;;;;;;18.11;100.00;100798.03;7396576;19;20111;-46
2022/06/09 03:10:45;;;;;;;37.63;14.23;;;;;;;17.94;100.00;100799.31;7395311;19;20499;-49
2022/06/09 03:13:14;;;;;;;36.17;13.10;;;;;;;17.95;100.00;100801.03;7396001;19;20029;-48
2022/06/09 03:15:43;;;;;;;29.85;14.43;;;;;;;18.09;100.00;100802.59;7395862;19;20018;-48
2022/06/09 03:18:12;;;;;;;35.13;14.18;;;;;;;18.16;100.00;100809.13;7396495;19;20066;-48
2022/06/09 03:20:41;;;;;;;30.60;12.80;;;;;;;17.56;100.00;100810.13;7396238;19;20015;-46
2022/06/09 03:23:13;;;;;;;31.85;14.27;;;;;;;18.07;100.00;100817.81;7395991;19;20007;-45
2022/06/09 03:25:43;;;;;;;34.05;14.23;;;;;;;17.72;100.00;100823.06;7395991;19;20022;-48
2022/06/09 03:28:12;;;;;;;27.27;12.02;;;;;;;17.70;100.00;100827.66;7395840;19;20373;-48
2022/06/09 03:30:41;;;;;;;33.90;13.52;;;;;;;17.81;100.00;100823.22;7394431;19;20488;-46
2022/06/09 03:33:10;;;;;;;32.42;12.52;;;;;;;17.75;100.00;100831.66;7394795;19;20539;-47
2022/06/09 03:35:39;;;;;;;35.33;13.98;;;;;;;17.93;100.00;100831.25;7395221;19;20021;-45
2022/06/09 03:38:08;;;;;;;28.45;13.05;;;;;;;17.92;100.00;100830.41;7395469;19;20014;-48
2022/06/09 03:40:40;;;;;;;37.53;13.82;;;;;;;18.14;100.00;100834.94;7394651;19;20019;-50
2022/06/09 03:43:09;;;;;;;39.80;13.80;;;;;;;18.25;100.00;100838.56;7395047;19;20023;-44
2022/06/09 03:45:38;;;;;;;30.05;13.18;;;;;;;18.01;100.00;100835.97;7394910;19;20360;-47
2022/06/09 03:48:07;;;;;;;31.20;13.63;;;;;;;18.27;100.00;100849.94;7394208;19;20031;-49
2022/06/09 03:50:36;;;;;;;31.38;12.55;;;;;;;18.15;100.00;100849.03;7393575;19;20049;-46
2022/06/09 03:53:06;;;;;;;30.58;13.30;;;;;;;18.08;100.00;100848.66;7394093;19;20010;-45
2022/06/09 03:55:35;;;;;;;34.88;13.20;;;;;;;18.23;100.00;100849.31;7395076;19;20014;-52
2022/06/09 03:58:07;;;;;;;31.55;12.68;;;;;;;18.08;100.00;100850.47;7394975;19;20364;-44
2022/06/09 04:00:36;;;;;;;29.00;12.60;;;;;;;18.39;100.00;100858.75;7394183;19;20022;-44
2022/06/09 04:03:05;;;;;;;34.70;13.30;;;;;;;18.51;100.00;100871.06;7394773;19;20316;-52
2022/06/09 04:05:35;;;;;;;33.75;13.65;;;;;;;18.58;100.00;100868.78;7394743;19;20021;-48
2022/06/09 04:08:04;;;;;;;31.20;12.65;;;;;;;18.19;100.00;100868.22;7395235;19;20014;-44
2022/06/09 04:10:36;;;;;;;31.20;13.80;;;;;;;18.33;100.00;100874.16;7393931;19;20014;-46
2022/06/09 04:13:08;;;;;;;31.00;12.35;;;;;;;18.06;100.00;100871.78;7394985;19;20021;-46
2022/06/09 04:15:37;;;;;;;26.83;12.95;;;;;;;18.32;100.00;100880.44;7395187;19;20014;-51
2022/06/09 04:18:07;;;;;;;24.75;11.75;;;;;;;18.00;100.00;100877.56;7394743;19;20022;-47
2022/06/09 04:20:36;;;;;;;30.92;11.93;;;;;;;17.79;100.00;100880.84;7394268;19;20022;-44
2022/06/09 04:23:05;;;;;;;28.23;12.13;;;;;;;17.84;100.00;100882.25;7394842;19;20011;-48
2022/06/09 04:25:34;;;;;;;25.95;12.48;;;;;;;18.02;100.00;100885.41;7394483;19;20018;-47
2022/06/09 04:28:03;;;;;;;29.27;12.00;;;;;;;17.98;100.00;100887.41;7395279;19;20357;-50
2022/06/09 04:30:35;;;;;;;26.48;11.35;;;;;;;17.69;100.00;100879.78;7393615;19;20011;-48
2022/06/09 04:33:03;;;;;;;24.58;11.55;;;;;;;17.99;100.00;100883.81;7394945;19;20521;-44
2022/06/09 04:35:32;;;;;;;29.33;11.40;;;;;;;18.19;100.00;100878.84;7394281;19;20011;-42
2022/06/09 04:38:04;;;;;;;27.92;12.18;;;;;;;18.38;100.00;100886.22;7396456;19;20097;-46
2022/06/09 04:40:36;;;;;;;23.80;11.23;;;;;;;17.67;100.00;100892.31;7395186;19;20010;-43
2022/06/09 04:43:07;;;;;;;28.92;11.85;;;;;;;18.04;100.00;100894.06;7394738;19;20022;-43
2022/06/09 04:45:40;;;;;;;28.65;11.32;;;;;;;18.05;100.00;100893.13;7394836;19;20018;-45
2022/06/09 04:48:10;;;;;;;24.52;12.15;;;;;;;18.03;100.00;100895.06;7393429;19;20482;-44
2022/06/09 04:50:40;;;;;;;29.48;11.05;;;;;;;17.64;100.00;100900.50;7394440;19;20022;-44
2022/06/09 04:53:09;;;;;;;25.65;11.27;;;;;;;17.66;100.00;100906.53;7395240;19;20029;-43
2022/06/09 04:55:38;;;;;;;26.42;12.27;;;;;;;18.20;100.00;100909.72;7397747;19;20357;-44
2022/06/09 04:58:07;;;;;;;28.17;12.32;;;;;;;18.30;100.00;100923.97;7394222;19;20025;-44
2022/06/09 05:00:39;;;;;;;24.58;11.43;;;;;;;17.98;100.00;100924.53;7391811;19;20014;-46
2022/06/09 05:03:11;;;;;;;28.73;12.18;;;;;;;18.26;100.00;100930.47;7394126;19;20463;-44
2022/06/09 05:05:44;;;;;;;26.33;12.15;;;;;;;18.35;100.00;100924.44;7394649;19;20753;-48
2022/06/09 05:08:13;;;;;;;28.40;11.80;;;;;;;18.41;100.00;100939.06;7393953;19;20465;-47
2022/06/09 05:10:43;;;;;;;27.17;12.27;;;;;;;18.34;100.00;100938.69;7393212;19;20015;-46
2022/06/09 05:13:13;;;;;;;27.55;12.27;;;;;;;18.24;100.00;100941.19;7393652;19;20033;-43
2022/06/09 05:15:50;;;;;;;24.63;12.02;;;;;;;18.28;100.00;100942.66;7393412;19;20022;-43
2022/06/09 05:18:19;;;;;;;37.67;12.80;;;;;;;18.01;100.00;100944.69;7393333;19;20038;-43
2022/06/09 05:20:48;;;;;;;24.80;11.95;;;;;;;17.87;100.00;100951.00;7393209;19;20018;-46
2022/06/09 05:23:18;;;;;;;35.55;13.23;;;;;;;18.13;100.00;100957.88;7393211;19;20468;-46
2022/06/09 05:25:47;;;;;;;27.67;12.30;;;;;;;18.19;100.00;100963.72;7392853;19;20351;-47
2022/06/09 05:28:16;;;;;;;24.98;11.07;;;;;;;17.70;100.00;100965.47;7391966;19;20018;-43
2022/06/09 05:30:48;;;;;;;24.77;12.40;;;;;;;18.29;100.00;100968.19;7391511;19;20007;-46
2022/06/09 05:33:17;;;;;;;26.40;11.98;;;;;;;18.61;100.00;100967.59;7392093;19;20014;-45
2022/06/09 05:35:46;;;;;;;24.13;12.02;;;;;;;18.98;100.00;100972.78;7392083;19;20022;-48
2022/06/09 05:46:24;;;;;;;24.00;9.48;;;;;;;18.63;100.00;100973.63;7392340;19;19929;-48
2022/06/09 05:48:53;;;;;;;14.18;7.50;;;;;;;18.10;100.00;100981.97;7391026;19;20480;-46
2022/06/09 05:51:22;;;;;;;15.32;7.55;;;;;;;18.36;100.00;100991.63;7390997;19;20112;-50
2022/06/09 05:53:50;;;;;;;18.73;7.07;;;;;;;18.42;100.00;100999.13;7389084;19;20018;-45
2022/06/09 05:56:20;;;;;;;13.55;6.57;;;;;;;18.62;100.00;101002.94;7392268;19;20019;-48
2022/06/09 05:58:49;;;;;;;15.32;7.40;;;;;;;18.63;100.00;101005.47;7390193;19;20014;-45
2022/06/09 06:01:18;;;;;;;13.40;6.63;;;;;;;18.44;100.00;101011.31;7390894;19;20333;-51
2022/06/09 06:03:50;;;;;;;14.07;7.13;;;;;;;18.60;100.00;101013.66;7390601;19;20352;-45
2022/06/09 06:09:00;;;;;;;15.73;6.63;;;;;;;19.13;100.00;101021.19;7390914;19;20015;-48
2022/06/09 06:11:29;;;;;;;11.80;6.45;;;;;;;18.95;100.00;101033.22;7391293;19;20022;-45
2022/06/09 06:13:58;;;;;;;12.70;6.35;;;;;;;19.10;100.00;101026.75;7397095;19;20360;-44
2022/06/09 06:16:27;;;;;;;10.70;6.28;;;;;;;18.92;100.00;101041.44;7399033;19;20022;-43
2022/06/09 06:18:59;;;;;;;15.10;6.35;;;;;;;18.90;100.00;101046.88;7398421;19;20014;-45
2022/06/09 06:21:28;;;;;;;12.10;6.32;;;;;;;19.20;100.00;101058.78;7399495;19;20018;-43
2022/06/09 06:23:57;;;;;;;13.30;6.15;;;;;;;19.01;100.00;101052.22;7397227;19;20010;-46
2022/06/09 06:26:26;;;;;;;14.82;5.68;;;;;;;19.34;100.00;101055.03;7398145;19;20036;-44
2022/06/09 06:28:55;;;;;;;12.88;4.93;;;;;;;18.98;100.00;101063.06;7398426;19;20070;-45
2022/06/09 06:31:24;;;;;;;14.32;6.18;;;;;;;19.41;100.00;101058.06;7398876;19;20014;-43
2022/06/09 06:33:53;;;;;;;21.20;6.40;;;;;;;19.51;100.00;101061.69;7397789;19;20325;-48
2022/06/09 06:36:24;;;;;;;9.95;5.07;;;;;;;19.76;100.00;101076.56;7398231;19;20023;-46
2022/06/09 06:38:53;;;;;;;10.18;5.43;;;;;;;20.08;100.00;101067.84;7397649;19;20014;-50
2022/06/09 06:41:22;;;;;;;10.60;4.88;;;;;;;20.03;100.00;101076.19;7398067;19;20368;-46
2022/06/09 06:43:52;;;;;;;8.82;4.72;;;;;;;20.02;100.00;101077.16;7396265;19;20333;-47
2022/06/09 06:46:21;;;;;;;13.57;5.93;;;;;;;20.00;100.00;101087.09;7397301;19;20014;-42
2022/06/09 06:48:50;;;;;;;11.23;5.38;;;;;;;20.15;100.00;101081.50;7396761;19;20018;-45
2022/06/09 06:51:19;;;;;;;12.63;4.82;;;;;;;19.92;100.00;101080.69;7396358;19;20030;-48
2022/06/09 06:53:51;;;;;;;11.55;4.65;;;;;;;19.81;100.00;101089.50;7396189;19;20011;-46
2022/06/09 06:56:20;;;;;;;11.48;4.88;;;;;;;19.95;100.00;101097.25;7397211;19;20018;-46
2022/06/09 06:58:49;;;;;;;10.32;4.35;;;;;;;20.18;100.00;101095.38;7396702;19;20360;-46
2022/06/09 07:01:18;;;;;;;11.55;4.50;;;;;;;19.70;100.00;101101.81;7397351;19;20006;-52
2022/06/09 07:03:46;;;;;;;10.95;4.15;;;;;;;19.44;100.00;101101.19;7396352;19;20400;-47
2022/06/09 07:06:16;;;;;;;7.60;3.65;;;;;;;19.88;100.00;101104.00;7397184;19;20014;-46
2022/06/09 07:08:45;;;;;;;12.13;5.20;;;;;;;20.22;100.00;101114.63;7396773;19;20014;-48
2022/06/09 07:11:17;;;;;;;18.30;5.65;;;;;;;20.24;100.00;101123.31;7396698;19;20019;-47
2022/06/09 07:13:45;;;;;;;45.38;10.88;;;;;;;20.32;100.00;101125.38;7394910;19;20022;-45
2022/06/09 07:16:15;;;;;;;13.82;5.10;;;;;;;19.96;100.00;101128.19;7397078;19;20101;-49
2022/06/09 07:18:44;;;;;;;12.13;5.00;;;;;;;20.33;100.00;101125.25;7396003;19;20017;-46
2022/06/09 07:21:13;;;;;;;54.58;12.95;;;;;;;19.99;100.00;101122.63;7396124;19;20014;-44
2022/06/09 07:23:42;;;;;;;10.18;4.32;;;;;;;20.43;100.00;101127.16;7393957;19;20026;-48
2022/06/09 07:26:11;;;;;;;7.65;4.00;;;;;;;20.55;100.00;101121.69;7396476;19;20030;-47
2022/06/09 07:28:43;;;;;;;7.57;4.60;;;;;;;20.71;100.00;101123.97;7395419;19;20364;-48
2022/06/09 07:31:13;;;;;;;6.10;4.22;;;;;;;20.30;100.00;101127.31;7396057;19;20017;-49
2022/06/09 07:33:42;;;;;;;8.77;4.63;;;;;;;20.91;100.00;101143.59;7395326;19;20027;-45
2022/06/09 07:36:13;;;;;;;7.18;3.90;;;;;;;21.13;100.00;101146.31;7395129;19;20029;-51
2022/06/09 07:38:43;;;;;;;7.13;4.57;;;;;;;20.86;100.00;101143.16;7395163;19;20019;-47
2022/06/09 07:41:12;;;;;;;6.80;4.90;;;;;;;21.13;100.00;101143.66;7395737;19;20354;-47
2022/06/09 07:43:44;;;;;;;7.53;4.85;;;;;;;21.21;100.00;101154.50;7394491;19;20030;-47
2022/06/09 07:46:13;;;;;;;7.13;5.13;;;;;;;20.86;100.00;101148.50;7395220;19;20022;-44
2022/06/09 07:48:42;;;;;;;8.82;4.82;;;;;;;21.08;100.00;101152.03;7394905;19;20475;-47
2022/06/09 07:51:11;;;;;;;7.57;4.40;;;;;;;20.79;100.00;101154.44;7395255;19;20021;-44
2022/06/09 07:53:40;;;;;;;8.60;4.82;;;;;;;21.12;100.00;101158.81;7394423;19;20022;-47
2022/06/09 07:56:10;;;;;;;8.73;4.63;;;;;;;20.98;100.00;101161.78;7396914;19;20022;-43
2022/06/09 07:58:39;;;;;;;11.18;4.45;;;;;;;20.75;100.00;101161.84;7400888;19;20493;-44
2022/06/09 08:01:10;;;;;;;8.30;5.00;;;;;;;20.61;100.00;101152.28;7398647;19;20021;-40
2022/06/09 08:03:40;;;;;;;9.35;4.82;;;;;;;20.81;100.00;101164.00;7398413;19;20014;-41
2022/06/09 08:06:10;;;;;;;6.57;4.38;;;;;;;21.20;100.00;101169.63;7397771;19;20498;-41
2022/06/09 08:08:39;;;;;;;10.75;4.45;;;;;;;21.08;100.00;101168.84;7398092;19;20014;-41
2022/06/09 08:11:09;;;;;;;20.77;6.90;;;;;;;21.07;100.00;101163.66;7397143;19;20015;-41
2022/06/09 08:13:39;;;;;;;11.38;5.00;;;;;;;20.89;100.00;101166.88;7395062;19;20340;-42
2022/06/09 08:16:11;;;;;;;7.38;4.30;;;;;;;21.00;100.00;101170.47;7396114;19;20021;-44
2022/06/09 08:18:40;;;;;;;7.13;4.77;;;;;;;20.97;100.00;101165.41;7399070;19;20014;-42
2022/06/09 08:21:09;;;;;;;5.85;3.97;;;;;;;20.95;100.00;101173.53;7396964;19;20014;-47
2022/06/09 08:23:38;;;;;;;6.55;4.32;;;;;;;21.18;100.00;101178.75;7396663;19;20009;-42
2022/06/09 08:26:07;;;;;;;7.85;4.75;;;;;;;21.44;100.00;101182.72;7395656;19;20026;-47
2022/06/09 08:28:36;;;;;;;6.47;4.55;;;;;;;21.65;100.00;101181.91;7396845;19;20015;-42
2022/06/09 08:31:05;;;;;;;6.38;4.78;;;;;;;21.46;100.00;101193.25;7399547;19;20554;-45
2022/06/09 08:33:38;;;;;;;9.55;5.28;;;;;;;21.85;100.00;101190.88;7397395;19;20017;-42
2022/06/09 08:36:07;;;;;;;;;;;;;;;21.57;100.00;101192.38;7399229;19;20011;-41
2022/06/09 08:38:36;;;;;;;10.13;5.20;;;;;;;21.59;100.00;101198.41;7398978;19;19925;-44
2022/06/09 08:41:17;;;;;;;11.07;6.68;;;;;;;21.62;100.00;101210.66;7400247;19;20003;-42
2022/06/09 08:43:50;;;;;;;12.30;5.03;;;;;;;21.20;100.00;101214.94;7401369;19;20092;-42
2022/06/09 08:46:28;;;;;;;223.68;38.90;;;;;;;21.83;100.00;101216.81;7398034;19;20018;-47
2022/06/09 08:49:03;;;;;;;230.95;38.85;;;;;;;22.02;100.00;101216.09;7397090;19;20018;-42
2022/06/09 08:51:39;;;;;;;12.20;5.15;;;;;;;21.98;100.00;101216.47;7396692;19;20021;-44
2022/06/09 08:54:14;;;;;;;69.18;14.00;;;;;;;21.85;100.00;101222.03;7397519;19;20376;-45
2022/06/09 08:56:45;;;;;;;79.57;15.25;;;;;;;22.02;100.00;101223.25;7395706;19;20083;-42
2022/06/09 08:59:18;;;;;;;18.65;6.40;;;;;;;22.50;100.00;101232.47;7396638;19;20011;-44
2022/06/09 09:01:51;;;;;;;20.13;5.25;;;;;;;22.61;100.00;101238.53;7396410;19;20014;-42
2022/06/09 09:04:27;;;;;;;5.65;2.33;;;;;;;22.01;92.58;101245.56;7396372;19;20015;-42
2022/06/09 09:07:01;;;;;;;8.52;2.70;;;;;;;21.40;94.95;101252.44;7396874;19;20011;-42
2022/06/09 09:09:33;;;;;;;8.77;2.40;;;;;;;22.04;100.00;101246.16;7395774;19;20014;-44
2022/06/09 09:12:10;;;;;;;7.35;2.28;;;;;;;22.22;100.00;101256.19;7397010;19;20026;-42
2022/06/09 09:14:49;;;;;;;8.55;2.90;;;;;;;22.00;100.00;101257.22;7396287;19;20033;-44
2022/06/09 09:17:24;;;;;;;8.52;2.60;;;;;;;21.15;100.00;101262.47;7394803;19;20498;-44
2022/06/09 09:20:04;;;;;;;6.50;3.00;;;;;;;21.64;100.00;101264.72;7396180;19;20082;-44
2022/06/09 09:22:40;;;;;;;6.22;2.30;;;;;;;21.65;100.00;101264.59;7395036;19;20034;-41
2022/06/09 09:25:23;;;;;;;9.90;3.47;;;;;;;21.93;100.00;101268.41;7395089;19;20473;-42
2022/06/09 09:27:57;;;;;;;7.20;2.88;;;;;;;22.02;100.00;101266.81;7395095;19;20053;-41
2022/06/09 09:30:36;;;;;;;6.00;2.45;;;;;;;22.00;100.00;101273.25;7394443;19;20011;-44
2022/06/09 09:33:05;;;;;;;8.90;2.67;;;;;;;21.37;100.00;101266.84;7394737;19;20029;-41
2022/06/09 09:35:41;;;;;;;8.32;3.50;;;;;;;22.18;100.00;101273.47;7394506;19;20459;-41
2022/06/09 09:38:16;;;;;;;8.13;3.58;;;;;;;21.80;100.00;101278.44;7395241;19;20014;-42
2022/06/09 09:40:49;;;;;;;9.75;3.20;;;;;;;22.08;100.00;101276.94;7394622;19;20316;-46
2022/06/09 09:43:23;;;;;;;9.45;3.50;;;;;;;22.16;100.00;101273.59;7395604;19;20336;-41
2022/06/09 09:45:55;;;;;;;11.77;5.03;;;;;;;22.36;100.00;101282.56;7392878;19;20014;-42
2022/06/09 09:48:33;;;;;;;5.65;3.25;;;;;;;21.64;100.00;101278.91;7393846;19;20096;-42
2022/06/09 09:51:11;;;;;;;8.27;3.70;;;;;;;22.00;100.00;101283.91;7393725;19;20340;-46
2022/06/09 09:53:44;;;;;;;14.20;3.75;;;;;;;22.44;100.00;101281.94;7393322;19;20015;-44
2022/06/09 09:56:32;;;;;;;8.55;3.38;;;;;;;22.43;100.00;101289.06;7392744;19;20025;-43
2022/06/09 09:59:04;;;;;;;10.63;3.58;;;;;;;22.35;100.00;101290.72;7392421;19;20017;-40
2022/06/09 10:10:09;;;;;;;29.02;9.38;;;;;;;22.34;100.00;101321.94;7394121;19;20348;-46
2022/06/09 10:12:39;;;;;;;23.10;13.50;;;;;;;21.89;100.00;101311.50;7393098;19;20018;-54
2022/06/09 10:15:18;;;;;;;20.20;11.77;;;;;;;21.75;100.00;101328.69;7393257;19;20025;-44
2022/06/09 10:17:57;;;;;;;14.80;10.82;;;;;;;21.47;100.00;101322.94;7395350;19;20010;-46
2022/06/09 10:20:34;;;;;;;13.45;10.10;;;;;;;21.27;100.00;101328.06;7395728;19;20111;-53
2022/06/09 10:23:33;;;;;;;15.63;9.82;;;;;;;21.32;100.00;101332.19;7393701;19;20018;-45
2022/06/09 10:26:07;;;;;;;14.75;10.45;;;;;;;21.34;100.00;101328.44;7392429;19;20015;-45
2022/06/09 10:28:43;;;;;;;14.95;8.25;;;;;;;21.32;100.00;101330.38;7392444;19;20823;-43
2022/06/09 10:31:19;;;;;;;13.73;11.10;;;;;;;21.33;100.00;101337.38;7393172;19;20014;-43
2022/06/09 10:33:54;;;;;;;18.75;9.77;;;;;;;21.41;100.00;101342.13;7391166;19;20014;-44
2022/06/09 10:36:27;;;;;;;15.07;9.32;;;;;;;21.32;100.00;101338.38;7391906;19;20011;-44
2022/06/09 10:39:04;;;;;;;13.68;9.60;;;;;;;21.35;100.00;101346.13;7392377;19;20010;-44
2022/06/09 10:41:42;;;;;;;13.43;9.50;;;;;;;21.19;100.00;101343.00;7379426;19;20010;-46
2022/06/09 10:44:20;;;;;;;12.63;7.53;;;;;;;20.86;100.00;101347.41;7395973;19;20022;-43
2022/06/09 10:55:14;;;;;;;9.40;5.43;;;;;;;20.81;100.00;101346.94;7392588;19;20022;-48
2022/06/09 10:55:27;;;;;;;11.45;4.57;;;;;;;20.49;100.00;101358.25;7391971;19;20023;-43
2022/06/09 10:58:03;;;;;;;10.35;5.18;;;;;;;20.88;100.00;101354.31;7395249;19;20010;-49
2022/06/09 11:00:36;;;;;;;9.00;5.43;;;;;;;21.19;100.00;101353.66;7399210;19;20015;-46
2022/06/09 11:03:14;;;;;;;10.43;4.60;;;;;;;20.99;100.00;101357.94;7401685;19;20352;-43
2022/06/09 11:05:58;;;;;;;10.95;6.60;;;;;;;22.00;100.00;101361.31;7399413;19;20014;-43
2022/06/09 11:08:35;;;;;;;9.75;4.40;;;;;;;22.30;100.00;101366.69;7399621;19;20536;-49
2022/06/09 11:11:17;;;;;;;6.85;3.20;;;;;;;22.15;100.00;101367.16;7399396;19;20375;-43
2022/06/09 11:13:58;;;;;;;9.00;3.50;;;;;;;22.07;100.00;101360.66;7397804;19;20070;-43
2022/06/09 11:16:36;;;;;;;10.70;4.45;;;;;;;22.44;100.00;101365.53;7396895;19;20258;-43
2022/06/09 11:19:17;;;;;;;7.35;3.13;;;;;;;21.78;100.00;101369.28;7398531;19;20475;-43
2022/06/09 11:21:55;;;;;;;5.93;3.10;;;;;;;21.99;100.00;101381.78;7398827;19;20018;-43
2022/06/09 11:24:35;;;;;;;10.98;3.30;;;;;;;21.76;100.00;101373.91;7398980;19;20015;-46
2022/06/09 11:27:32;;;;;;;6.65;3.00;;;;;;;21.95;100.00;101380.38;7398565;19;20015;-46
2022/06/09 11:30:14;;;;;;;6.88;2.85;;;;;;;21.58;100.00;101376.25;7397564;19;20015;-40
2022/06/09 11:32:48;;;;;;;5.78;2.42;;;;;;;21.55;100.00;101384.53;7397763;19;20014;-45
2022/06/09 11:35:35;;;;;;;4.57;1.85;;;;;;;21.21;100.00;101384.56;7397271;19;20022;-44
2022/06/09 11:38:20;;;;;;;4.28;2.10;;;;;;;21.42;100.00;101383.81;7399274;19;20014;-43
2022/06/09 11:40:56;;;;;;;5.47;2.40;;;;;;;21.45;99.43;101388.88;7399259;19;20482;-43
2022/06/09 11:43:52;;;;;;;5.35;2.17;;;;;;;22.42;88.06;101396.03;7398578;19;20486;-47
2022/06/09 11:46:26;;;;;;;5.82;2.10;;;;;;;23.58;77.30;101400.13;7393894;19;20019;-44
2022/06/09 11:49:00;;;;;;;6.05;1.95;;;;;;;24.70;71.96;101394.28;7398483;19;20014;-43
2022/06/09 11:51:31;;;;;;;3.80;1.58;;;;;;;24.94;73.08;101402.81;7398498;19;20363;-49
2022/06/09 11:54:02;;;;;;;5.05;2.00;;;;;;;24.21;75.54;101403.41;7396568;19;20014;-43
2022/06/09 11:56:43;;;;;;;6.47;1.75;;;;;;;22.87;76.09;101398.38;7396747;19;20383;-44